createdAt,value
2018-05-27T00:00:13.510Z,18.33
2018-05-27T00:01:13.510Z,18.25
2018-05-27T00:02:13.762Z,18.26
2018-05-27T00:03:13.731Z,18.33
2018-05-27T00:04:13.761Z,18.29
2018-05-27T00:05:13.493Z,18.27
2018-05-27T00:06:13.712Z,18.26
2018-05-27T00:07:13.769Z,18.33
2018-05-27T00:08:13.716Z,18.26
2018-05-27T00:09:13.469Z,18.3
2018-05-27T00:10:13.702Z,18.23
2018-05-27T00:11:13.496Z,18.26
2018-05-27T00:12:13.727Z,18.25
2018-05-27T00:13:13.713Z,18.27
2018-05-27T00:14:13.466Z,18.21
2018-05-27T00:15:13.687Z,18.26
2018-05-27T00:16:13.712Z,18.29
2018-05-27T00:17:13.696Z,18.26
2018-05-27T00:18:13.707Z,18.27
2018-05-27T00:19:13.669Z,18.21
2018-05-27T00:20:13.694Z,18.33
2018-05-27T00:21:13.662Z,18.27
2018-05-27T00:22:13.449Z,18.29
2018-05-27T00:23:13.655Z,18.21
2018-05-27T00:24:13.685Z,18.2
2018-05-27T00:25:13.662Z,18.18
2018-05-27T00:26:13.488Z,18.2
2018-05-27T00:27:13.641Z,18.15
2018-05-27T00:28:13.649Z,18.1
2018-05-27T00:29:13.653Z,18.14
2018-05-27T00:30:13.678Z,18.05
2018-05-27T00:31:13.627Z,18.14
2018-05-27T00:32:13.393Z,18.15
2018-05-27T00:33:13.637Z,18.12
2018-05-27T00:34:13.649Z,18.05
2018-05-27T00:35:13.611Z,18.03
2018-05-27T00:36:13.390Z,18
2018-05-27T00:37:13.354Z,17.99
2018-05-27T00:38:13.635Z,18
2018-05-27T00:39:13.345Z,17.95
2018-05-27T00:40:13.378Z,17.95
2018-05-27T00:41:13.615Z,17.95
2018-05-27T00:42:13.370Z,17.92
2018-05-27T00:43:13.327Z,17.9
2018-05-27T00:44:13.338Z,17.92
2018-05-27T00:45:13.078Z,17.9
2018-05-27T00:46:13.892Z,17.93
2018-05-27T00:47:13.341Z,17.93
2018-05-27T00:48:13.318Z,17.93
2018-05-27T00:49:13.590Z,17.93
2018-05-27T00:50:13.581Z,17.93
2018-05-27T00:51:13.591Z,17.89
2018-05-27T00:52:13.304Z,17.99
2018-05-27T00:53:13.589Z,17.99
2018-05-27T00:54:13.284Z,17.92
2018-05-27T00:55:13.568Z,17.89
2018-05-27T00:56:13.541Z,18.02
2018-05-27T00:57:13.552Z,17.97
2018-05-27T00:58:13.565Z,17.99
2018-05-27T00:59:13.266Z,17.99
2018-05-27T01:00:13.525Z,18.03
2018-05-27T01:01:13.277Z,18.07
2018-05-27T01:02:13.557Z,18.11
2018-05-27T01:03:13.555Z,18.14
2018-05-27T01:04:13.257Z,18.11
2018-05-27T01:05:13.266Z,18.12
2018-05-27T01:06:13.241Z,18.11
2018-05-27T01:07:13.523Z,18.08
2018-05-27T01:08:13.489Z,18.15
2018-05-27T01:09:13.256Z,18.14
2018-05-27T01:10:13.483Z,18.1
2018-05-27T01:11:13.508Z,18.14
2018-05-27T01:12:13.470Z,18.1
2018-05-27T01:13:13.487Z,18.12
2018-05-27T01:14:13.461Z,18.08
2018-05-27T01:15:13.539Z,18.02
2018-05-27T01:16:13.488Z,18.05
2018-05-27T01:17:13.725Z,18.03
2018-05-27T01:18:13.192Z,17.96
2018-05-27T01:19:13.452Z,17.89
2018-05-27T01:20:13.212Z,17.95
2018-05-27T01:21:13.201Z,17.9
2018-05-27T01:22:13.436Z,17.9
2018-05-27T01:23:13.204Z,17.95
2018-05-27T01:24:13.439Z,17.87
2018-05-27T01:25:13.465Z,17.82
2018-05-27T01:26:13.417Z,17.82
2018-05-27T01:27:13.450Z,17.89
2018-05-27T01:28:13.155Z,17.89
2018-05-27T01:29:13.425Z,17.84
2018-05-27T01:30:13.184Z,17.89
2018-05-27T01:31:13.434Z,17.79
2018-05-27T01:32:13.166Z,17.84
2018-05-27T01:33:13.415Z,17.81
2018-05-27T01:34:13.133Z,17.72
2018-05-27T01:35:13.396Z,17.75
2018-05-27T01:36:13.149Z,17.72
2018-05-27T01:37:13.397Z,17.71
2018-05-27T01:38:13.403Z,17.7
2018-05-27T01:39:13.375Z,17.58
2018-05-27T01:40:13.401Z,17.48
2018-05-27T01:41:13.375Z,17.33
2018-05-27T01:42:13.388Z,17.08
2018-05-27T01:43:13.360Z,17.07
2018-05-27T01:44:13.136Z,16.79
2018-05-27T01:45:13.356Z,16.76
2018-05-27T01:46:12.858Z,16.6
2018-05-27T01:47:13.082Z,16.56
2018-05-27T01:48:13.617Z,16.42
2018-05-27T01:49:13.093Z,16.38
2018-05-27T01:50:13.322Z,16.31
2018-05-27T01:51:13.317Z,16.27
2018-05-27T01:52:13.347Z,16.2
2018-05-27T01:53:13.337Z,16.2
2018-05-27T01:54:13.343Z,16.21
2018-05-27T01:55:13.048Z,16.05
2018-05-27T01:56:13.068Z,15.92
2018-05-27T01:57:13.045Z,16.02
2018-05-27T01:58:13.063Z,15.94
2018-05-27T01:59:13.286Z,15.92
2018-05-27T02:00:13.315Z,15.89
2018-05-27T02:01:13.038Z,15.83
2018-05-27T02:02:13.311Z,15.78
2018-05-27T02:03:13.011Z,15.82
2018-05-27T02:04:13.263Z,15.76
2018-05-27T02:05:13.269Z,15.71
2018-05-27T02:06:13.291Z,15.72
2018-05-27T02:07:13.278Z,15.71
2018-05-27T02:08:13.248Z,15.69
2018-05-27T02:09:13.250Z,15.71
2018-05-27T02:10:13.232Z,15.72
2018-05-27T02:11:13.002Z,15.64
2018-05-27T02:12:13.229Z,15.68
2018-05-27T02:13:13.229Z,15.68
2018-05-27T02:14:13.243Z,15.59
2018-05-27T02:15:13.208Z,15.57
2018-05-27T02:16:12.976Z,15.53
2018-05-27T02:17:12.959Z,15.5
2018-05-27T02:18:12.966Z,15.47
2018-05-27T02:19:13.438Z,15.5
2018-05-27T02:20:13.188Z,15.5
2018-05-27T02:21:13.203Z,15.67
2018-05-27T02:22:12.950Z,15.47
2018-05-27T02:23:13.198Z,15.51
2018-05-27T02:24:13.175Z,15.67
2018-05-27T02:25:13.174Z,15.53
2018-05-27T02:26:12.899Z,15.53
2018-05-27T02:27:13.181Z,15.47
2018-05-27T02:28:13.162Z,15.53
2018-05-27T02:29:12.910Z,15.5
2018-05-27T02:30:12.879Z,15.56
2018-05-27T02:31:12.904Z,15.51
2018-05-27T02:32:13.132Z,15.65
2018-05-27T02:33:13.152Z,15.57
2018-05-27T02:34:13.120Z,15.62
2018-05-27T02:35:13.151Z,15.56
2018-05-27T02:36:13.135Z,15.57
2018-05-27T02:37:13.124Z,15.65
2018-05-27T02:38:12.840Z,15.67
2018-05-27T02:39:13.128Z,15.65
2018-05-27T02:40:13.092Z,15.65
2018-05-27T02:41:13.095Z,15.65
2018-05-27T02:42:13.077Z,15.68
2018-05-27T02:43:13.109Z,15.67
2018-05-27T02:44:13.067Z,15.65
2018-05-27T02:45:12.845Z,15.65
2018-05-27T02:46:12.808Z,15.68
2018-05-27T02:47:13.085Z,15.62
2018-05-27T02:48:13.044Z,15.64
2018-05-27T02:49:13.058Z,15.6
2018-05-27T02:50:13.044Z,15.67
2018-05-27T02:51:13.062Z,15.67
2018-05-27T02:52:13.052Z,15.59
2018-05-27T02:53:13.037Z,15.69
2018-05-27T02:54:13.013Z,15.69
2018-05-27T02:55:13.003Z,15.6
2018-05-27T02:56:13.031Z,15.65
2018-05-27T02:57:13.026Z,15.71
2018-05-27T02:58:13.028Z,15.57
2018-05-27T02:59:12.984Z,15.59
2018-05-27T03:00:13.010Z,15.68
2018-05-27T03:01:12.973Z,15.64
2018-05-27T03:02:13.014Z,15.64
2018-05-27T03:03:12.967Z,15.67
2018-05-27T03:04:12.996Z,15.6
2018-05-27T03:05:12.981Z,15.64
2018-05-27T03:06:12.695Z,15.62
2018-05-27T03:07:12.986Z,15.67
2018-05-27T03:08:12.709Z,15.59
2018-05-27T03:09:12.714Z,15.59
2018-05-27T03:10:12.938Z,15.65
2018-05-27T03:11:12.935Z,15.51
2018-05-27T03:12:12.688Z,15.53
2018-05-27T03:13:12.938Z,15.53
2018-05-27T03:14:12.940Z,15.57
2018-05-27T03:15:12.914Z,15.54
2018-05-27T03:16:12.418Z,15.57
2018-05-27T03:17:12.919Z,15.53
2018-05-27T03:18:12.896Z,15.6
2018-05-27T03:19:12.930Z,15.62
2018-05-27T03:20:12.636Z,15.53
2018-05-27T03:21:12.640Z,15.56
2018-05-27T03:22:12.872Z,15.56
2018-05-27T03:23:12.899Z,15.49
2018-05-27T03:24:12.882Z,15.51
2018-05-27T03:25:12.872Z,15.5
2018-05-27T03:26:12.603Z,15.5
2018-05-27T03:27:12.592Z,15.62
2018-05-27T03:28:12.861Z,15.57
2018-05-27T03:29:12.847Z,15.64
2018-05-27T03:30:12.830Z,15.59
2018-05-27T03:31:12.869Z,15.59
2018-05-27T03:32:12.817Z,15.64
2018-05-27T03:33:12.840Z,15.65
2018-05-27T03:34:12.804Z,15.71
2018-05-27T03:35:12.834Z,15.59
2018-05-27T03:36:12.798Z,15.68
2018-05-27T03:37:12.819Z,15.75
2018-05-27T03:38:12.789Z,15.68
2018-05-27T03:39:12.815Z,15.68
2018-05-27T03:40:12.545Z,15.71
2018-05-27T03:41:12.531Z,15.74
2018-05-27T03:42:12.510Z,15.71
2018-05-27T03:43:12.764Z,15.76
2018-05-27T03:44:12.781Z,15.72
2018-05-27T03:45:12.773Z,15.76
2018-05-27T03:46:12.781Z,15.8
2018-05-27T03:47:12.737Z,15.87
2018-05-27T03:48:12.502Z,15.84
2018-05-27T03:49:12.729Z,16.04
2018-05-27T03:50:12.761Z,15.97
2018-05-27T03:51:12.466Z,16.14
2018-05-27T03:52:12.753Z,16.28
2018-05-27T03:53:12.726Z,16.33
2018-05-27T03:54:12.741Z,16.45
2018-05-27T03:55:12.193Z,16.66
2018-05-27T03:56:12.725Z,16.71
2018-05-27T03:57:12.711Z,16.83
2018-05-27T03:58:12.684Z,17.01
2018-05-27T03:59:12.679Z,17
2018-05-27T04:00:12.711Z,17.14
2018-05-27T04:01:12.701Z,17.34
2018-05-27T04:02:12.706Z,17.4
2018-05-27T04:03:12.664Z,17.55
2018-05-27T04:04:12.180Z,17.66
2018-05-27T04:05:12.659Z,17.87
2018-05-27T04:06:12.751Z,18
2018-05-27T04:07:12.659Z,18.08
2018-05-27T04:08:12.686Z,18.25
2018-05-27T04:09:12.668Z,18.27
2018-05-27T04:10:12.677Z,18.36
2018-05-27T04:11:12.643Z,18.32
2018-05-27T04:12:12.393Z,18.39
2018-05-27T04:13:12.659Z,18.47
2018-05-27T04:14:12.408Z,18.54
2018-05-27T04:15:12.672Z,18.67
2018-05-27T04:16:12.630Z,18.82
2018-05-27T04:17:12.645Z,18.92
2018-05-27T04:18:12.626Z,18.99
2018-05-27T04:19:12.657Z,19.04
2018-05-27T04:20:12.629Z,19.11
2018-05-27T04:21:12.630Z,19.28
2018-05-27T04:22:12.132Z,19.51
2018-05-27T04:23:12.613Z,19.73
2018-05-27T04:24:12.896Z,19.92
2018-05-27T04:25:12.625Z,20.03
2018-05-27T04:26:12.640Z,20.13
2018-05-27T04:27:12.606Z,20.26
2018-05-27T04:28:12.357Z,20.26
2018-05-27T04:29:12.361Z,20.36
2018-05-27T04:30:12.381Z,20.54
2018-05-27T04:31:12.379Z,20.67
2018-05-27T04:32:12.357Z,20.64
2018-05-27T04:33:12.620Z,20.87
2018-05-27T04:34:12.603Z,21.09
2018-05-27T04:35:12.633Z,21.17
2018-05-27T04:36:12.607Z,21.37
2018-05-27T04:37:12.634Z,21.35
2018-05-27T04:38:12.600Z,21.44
2018-05-27T04:39:12.637Z,21.58
2018-05-27T04:40:12.601Z,21.69
2018-05-27T04:41:12.624Z,21.84
2018-05-27T04:42:12.352Z,21.96
2018-05-27T04:43:12.637Z,21.96
2018-05-27T04:44:12.633Z,22.07
2018-05-27T04:45:12.625Z,22.27
2018-05-27T04:46:12.612Z,22.42
2018-05-27T04:47:12.647Z,22.51
2018-05-27T04:48:12.621Z,22.83
2018-05-27T04:49:12.629Z,23.09
2018-05-27T04:50:12.615Z,23.36
2018-05-27T04:51:12.652Z,23.66
2018-05-27T04:52:12.625Z,23.84
2018-05-27T04:53:12.661Z,23.93
2018-05-27T04:54:12.629Z,24.08
2018-05-27T04:55:12.664Z,24.27
2018-05-27T04:56:12.635Z,24.27
2018-05-27T04:57:12.655Z,24.4
2018-05-27T04:58:12.639Z,24.49
2018-05-27T04:59:12.506Z,24.64
2018-05-27T05:00:12.400Z,24.87
2018-05-27T05:01:12.415Z,24.95
2018-05-27T05:02:12.689Z,25.18
2018-05-27T05:03:12.700Z,25.5
2018-05-27T05:04:12.674Z,25.69
2018-05-27T05:05:12.430Z,26.02
2018-05-27T05:06:12.430Z,26.1
2018-05-27T05:07:12.718Z,26.15
2018-05-27T05:08:12.690Z,26.28
2018-05-27T05:09:12.723Z,26.23
2018-05-27T05:10:12.693Z,26.25
2018-05-27T05:11:12.736Z,26.4
2018-05-27T05:12:12.725Z,26.63
2018-05-27T05:13:12.728Z,26.75
2018-05-27T05:14:12.235Z,26.8
2018-05-27T05:15:12.729Z,26.77
2018-05-27T05:16:12.733Z,26.69
2018-05-27T05:17:12.748Z,26.7
2018-05-27T05:18:12.785Z,26.65
2018-05-27T05:19:12.800Z,26.58
2018-05-27T05:20:12.765Z,26.62
2018-05-27T05:21:12.522Z,26.48
2018-05-27T05:22:12.876Z,26.37
2018-05-27T05:23:12.808Z,26.39
2018-05-27T05:24:12.792Z,26.37
2018-05-27T05:25:12.826Z,26.33
2018-05-27T05:26:12.805Z,26.32
2018-05-27T05:27:12.844Z,26.36
2018-05-27T05:28:12.810Z,26.33
2018-05-27T05:29:12.576Z,26.32
2018-05-27T05:30:12.570Z,26.4
2018-05-27T05:31:12.616Z,26.62
2018-05-27T05:32:12.868Z,26.84
2018-05-27T05:33:12.866Z,26.95
2018-05-27T05:34:12.854Z,26.94
2018-05-27T05:35:12.606Z,26.95
2018-05-27T05:36:12.897Z,27.17
2018-05-27T05:37:12.894Z,27.28
2018-05-27T05:38:12.878Z,27.36
2018-05-27T05:39:12.925Z,27.62
2018-05-27T05:40:12.910Z,27.85
2018-05-27T05:41:12.936Z,28.07
2018-05-27T05:42:12.658Z,28.33
2018-05-27T05:43:12.957Z,28.55
2018-05-27T05:44:12.931Z,28.7
2018-05-27T05:45:12.959Z,28.9
2018-05-27T05:46:12.957Z,29.02
2018-05-27T05:47:12.727Z,29.02
2018-05-27T05:48:12.732Z,28.77
2018-05-27T05:49:13.016Z,28.51
2018-05-27T05:50:12.977Z,28.19
2018-05-27T05:51:12.984Z,28.03
2018-05-27T05:52:13.037Z,27.92
2018-05-27T05:53:13.021Z,27.81
2018-05-27T05:54:12.787Z,27.81
2018-05-27T05:55:12.778Z,28.03
2018-05-27T05:56:12.543Z,28.12
2018-05-27T05:57:13.303Z,28.29
2018-05-27T05:58:13.081Z,28.33
2018-05-27T05:59:13.060Z,28.21
2018-05-27T06:00:13.102Z,28.11
2018-05-27T06:01:13.243Z,28.19
2018-05-27T06:02:12.867Z,28.49
2018-05-27T06:03:12.845Z,28.86
2018-05-27T06:04:12.880Z,28.89
2018-05-27T06:05:12.876Z,29.16
2018-05-27T06:06:12.868Z,29.18
2018-05-27T06:07:13.135Z,29.18
2018-05-27T06:08:13.179Z,29.27
2018-05-27T06:09:12.916Z,29.27
2018-05-27T06:10:13.200Z,29.23
2018-05-27T06:11:13.175Z,29.43
2018-05-27T06:12:13.219Z,29.6
2018-05-27T06:13:13.196Z,29.41
2018-05-27T06:14:13.237Z,29.27
2018-05-27T06:15:13.214Z,29.3
2018-05-27T06:16:13.257Z,29.41
2018-05-27T06:17:13.258Z,29.58
2018-05-27T06:18:13.287Z,29.79
2018-05-27T06:19:13.257Z,30.11
2018-05-27T06:20:13.275Z,30.49
2018-05-27T06:21:13.307Z,30.79
2018-05-27T06:22:13.323Z,31.21
2018-05-27T06:23:13.078Z,31.51
2018-05-27T06:24:13.062Z,31.89
2018-05-27T06:25:12.829Z,32.33
2018-05-27T06:26:13.335Z,32.62
2018-05-27T06:27:13.378Z,33.09
2018-05-27T06:28:13.616Z,33.29
2018-05-27T06:29:13.386Z,33.49
2018-05-27T06:30:13.433Z,33.51
2018-05-27T06:31:13.144Z,33.66
2018-05-27T06:32:13.368Z,33.5
2018-05-27T06:33:13.445Z,33.53
2018-05-27T06:34:13.478Z,33.65
2018-05-27T06:35:13.195Z,33.76
2018-05-27T06:36:13.467Z,33.81
2018-05-27T06:37:13.490Z,33.71
2018-05-27T06:38:13.534Z,33.75
2018-05-27T06:39:13.544Z,33.78
2018-05-27T06:40:13.529Z,33.93
2018-05-27T06:41:13.550Z,34.08
2018-05-27T06:42:13.587Z,34.34
2018-05-27T06:43:13.567Z,34.39
2018-05-27T06:44:13.342Z,34.42
2018-05-27T06:45:13.078Z,34.39
2018-05-27T06:46:13.638Z,34.43
2018-05-27T06:47:13.612Z,34.31
2018-05-27T06:48:14.926Z,34.28
2018-05-27T06:49:13.682Z,34.17
2018-05-27T06:50:13.686Z,34.17
2018-05-27T06:51:13.700Z,34.03
2018-05-27T06:52:13.688Z,33.81
2018-05-27T06:53:13.735Z,33.81
2018-05-27T06:54:13.485Z,33.81
2018-05-27T06:55:13.733Z,33.81
2018-05-27T06:56:13.791Z,33.81
2018-05-27T06:57:13.772Z,34.03
2018-05-27T06:58:13.812Z,34.31
2018-05-27T06:59:13.795Z,34.69
2018-05-27T07:00:13.584Z,35.07
2018-05-27T07:01:13.825Z,35.53
2018-05-27T07:02:13.609Z,35.72
2018-05-27T07:03:13.868Z,35.96
2018-05-27T07:04:13.903Z,36.28
2018-05-27T07:05:13.921Z,36.56
2018-05-27T07:06:13.905Z,37
2018-05-27T07:07:13.934Z,37.03
2018-05-27T07:08:13.681Z,37.18
2018-05-27T07:09:13.990Z,37.25
2018-05-27T07:10:13.970Z,37.41
2018-05-27T07:11:13.760Z,37.75
2018-05-27T07:12:14.055Z,38.03
2018-05-27T07:13:14.050Z,38.2
2018-05-27T07:14:14.041Z,38.2
2018-05-27T07:15:13.812Z,38.23
2018-05-27T07:16:14.066Z,38.22
2018-05-27T07:17:14.174Z,38.13
2018-05-27T07:18:13.872Z,38.16
2018-05-27T07:19:14.135Z,38.22
2018-05-27T07:20:14.137Z,38.42
2018-05-27T07:21:14.188Z,38.49
2018-05-27T07:22:14.177Z,38.49
2018-05-27T07:23:14.201Z,38.61
2018-05-27T07:24:14.209Z,38.66
2018-05-27T07:25:13.997Z,38.52
2018-05-27T07:26:14.240Z,38.56
2018-05-27T07:27:14.292Z,38.74
2018-05-27T07:28:14.473Z,38.93
2018-05-27T07:29:14.323Z,39.14
2018-05-27T07:30:14.575Z,39.26
2018-05-27T07:31:14.344Z,39.33
2018-05-27T07:32:14.517Z,39.28
2018-05-27T07:33:14.396Z,39.45
2018-05-27T07:34:14.154Z,39.36
2018-05-27T07:35:14.415Z,39.28
2018-05-27T07:36:14.415Z,39.29
2018-05-27T07:37:14.435Z,39.26
2018-05-27T07:38:14.485Z,39.48
2018-05-27T07:39:14.491Z,39.32
2018-05-27T07:40:14.262Z,39.28
2018-05-27T07:41:14.505Z,39.09
2018-05-27T07:42:14.556Z,39.03
2018-05-27T07:43:14.543Z,38.95
2018-05-27T07:44:14.340Z,38.83
2018-05-27T07:45:14.586Z,38.74
2018-05-27T07:46:14.624Z,38.61
2018-05-27T07:47:14.634Z,38.68
2018-05-27T07:48:14.378Z,38.6
2018-05-27T07:49:14.681Z,38.6
2018-05-27T07:50:14.437Z,38.71
2018-05-27T07:51:14.444Z,38.84
2018-05-27T07:52:14.709Z,39.03
2018-05-27T07:53:14.712Z,38.95
2018-05-27T07:54:14.761Z,39.01
2018-05-27T07:55:14.769Z,38.83
2018-05-27T07:56:14.802Z,38.81
2018-05-27T07:57:14.789Z,38.76
2018-05-27T07:58:15.017Z,38.88
2018-05-27T07:59:14.822Z,39.1
2018-05-27T08:00:14.869Z,39.21
2018-05-27T08:01:15.105Z,39.3
2018-05-27T08:02:14.908Z,38.98
2018-05-27T08:03:14.907Z,38.75
2018-05-27T08:04:14.942Z,38.68
2018-05-27T08:05:14.927Z,38.6
2018-05-27T08:06:14.953Z,38.6
2018-05-27T08:07:15.225Z,38.57
2018-05-27T08:08:15.025Z,38.57
2018-05-27T08:09:14.782Z,38.56
2018-05-27T08:10:14.780Z,38.49
2018-05-27T08:11:15.055Z,38.44
2018-05-27T08:12:15.094Z,38.49
2018-05-27T08:13:15.076Z,38.52
2018-05-27T08:14:14.613Z,38.68
2018-05-27T08:15:15.113Z,38.76
2018-05-27T08:16:15.168Z,38.84
2018-05-27T08:17:14.902Z,38.87
2018-05-27T08:18:14.949Z,39.03
2018-05-27T08:19:15.209Z,38.98
2018-05-27T08:20:14.734Z,39.06
2018-05-27T08:21:15.229Z,39.11
2018-05-27T08:22:15.253Z,39.01
2018-05-27T08:23:15.028Z,38.99
2018-05-27T08:24:15.319Z,38.98
2018-05-27T08:25:14.823Z,39.1
2018-05-27T08:26:15.343Z,38.95
2018-05-27T08:27:15.357Z,38.75
2018-05-27T08:28:15.105Z,38.68
2018-05-27T08:29:15.408Z,38.4
2018-05-27T08:30:15.399Z,38.18
2018-05-27T08:31:15.461Z,37.97
2018-05-27T08:32:15.431Z,37.85
2018-05-27T08:33:15.685Z,37.96
2018-05-27T08:34:15.465Z,37.72
2018-05-27T08:35:15.255Z,37.51
2018-05-27T08:36:15.246Z,37.39
2018-05-27T08:37:15.296Z,37.32
2018-05-27T08:38:15.288Z,37.2
2018-05-27T08:39:15.314Z,36.99
2018-05-27T08:40:15.607Z,36.87
2018-05-27T08:41:15.616Z,36.78
2018-05-27T08:42:15.618Z,36.81
2018-05-27T08:43:15.632Z,36.71
2018-05-27T08:44:15.645Z,36.54
2018-05-27T08:45:15.432Z,36.37
2018-05-27T08:46:15.422Z,36.23
2018-05-27T08:47:15.461Z,36.01
2018-05-27T08:48:15.706Z,35.89
2018-05-27T08:49:15.506Z,35.63
2018-05-27T08:50:15.227Z,35.62
2018-05-27T08:51:15.510Z,35.48
2018-05-27T08:52:15.515Z,35.23
2018-05-27T08:53:15.814Z,35.02
2018-05-27T08:54:15.570Z,34.77
2018-05-27T08:55:15.573Z,34.58
2018-05-27T08:56:15.567Z,34.19
2018-05-27T08:57:15.914Z,34.1
2018-05-27T08:58:15.877Z,33.86
2018-05-27T08:59:15.885Z,33.63
2018-05-27T09:00:15.661Z,33.29
2018-05-27T09:01:16.056Z,33.09
2018-05-27T09:02:15.933Z,32.89
2018-05-27T09:03:15.939Z,32.63
2018-05-27T09:04:15.924Z,32.5
2018-05-27T09:05:15.969Z,32.32
2018-05-27T09:06:15.691Z,32
2018-05-27T09:07:15.998Z,31.99
2018-05-27T09:08:15.961Z,31.8
2018-05-27T09:09:16.009Z,31.62
2018-05-27T09:10:16.007Z,31.46
2018-05-27T09:11:15.758Z,31.34
2018-05-27T09:12:15.745Z,31.13
2018-05-27T09:13:16.009Z,31.02
2018-05-27T09:14:15.789Z,30.99
2018-05-27T09:15:17.268Z,30.97
2018-05-27T09:16:15.812Z,30.8
2018-05-27T09:17:16.043Z,30.86
2018-05-27T09:18:15.823Z,30.84
2018-05-27T09:19:16.070Z,30.76
2018-05-27T09:20:16.111Z,30.7
2018-05-27T09:21:16.091Z,30.76
2018-05-27T09:22:16.131Z,30.61
2018-05-27T09:23:16.104Z,30.58
2018-05-27T09:24:16.132Z,30.49
2018-05-27T09:25:15.854Z,30.49
2018-05-27T09:26:16.119Z,30.29
2018-05-27T09:27:16.133Z,30.1
2018-05-27T09:28:16.170Z,29.89
2018-05-27T09:29:16.146Z,29.8
2018-05-27T09:30:15.913Z,29.73
2018-05-27T09:31:15.917Z,29.71
2018-05-27T09:32:16.204Z,29.63
2018-05-27T09:33:15.936Z,29.61
2018-05-27T09:34:16.199Z,29.63
2018-05-27T09:35:15.668Z,29.55
2018-05-27T09:36:16.219Z,29.41
2018-05-27T09:37:16.194Z,29.39
2018-05-27T09:38:16.236Z,29.33
2018-05-27T09:39:16.408Z,29.36
2018-05-27T09:40:16.240Z,29.27
2018-05-27T09:41:16.219Z,29.28
2018-05-27T09:42:15.717Z,29.31
2018-05-27T09:43:16.236Z,29.23
2018-05-27T09:44:16.262Z,29.21
2018-05-27T09:45:16.658Z,29.19
2018-05-27T09:46:16.251Z,29.15
2018-05-27T09:47:16.270Z,29.06
2018-05-27T09:48:16.272Z,29.14
2018-05-27T09:49:16.293Z,29.09
2018-05-27T09:50:16.268Z,29.16
2018-05-27T09:51:16.122Z,29.12
2018-05-27T09:52:16.282Z,29.12
2018-05-27T09:53:16.316Z,29.15
2018-05-27T09:54:16.334Z,29.15
2018-05-27T09:55:16.318Z,29.19
2018-05-27T09:56:16.337Z,29.19
2018-05-27T09:57:16.304Z,29.24
2018-05-27T09:58:16.496Z,29.21
2018-05-27T09:59:16.350Z,29.34
2018-05-27T10:00:16.366Z,29.3
2018-05-27T10:01:16.356Z,29.34
2018-05-27T10:02:16.341Z,29.27
2018-05-27T10:03:16.088Z,29.24
2018-05-27T10:04:16.092Z,29.21
2018-05-27T10:05:16.386Z,29.19
2018-05-27T10:06:16.352Z,29.24
2018-05-27T10:07:16.377Z,29.21
2018-05-27T10:08:16.141Z,29.23
2018-05-27T10:09:16.367Z,29.26
2018-05-27T10:10:16.417Z,29.21
2018-05-27T10:11:16.130Z,29.21
2018-05-27T10:12:16.418Z,29.18
2018-05-27T10:13:16.133Z,29.15
2018-05-27T10:14:16.143Z,29.11
2018-05-27T10:15:16.414Z,29.12
2018-05-27T10:16:16.449Z,29.23
2018-05-27T10:17:16.455Z,29.26
2018-05-27T10:18:16.413Z,29.23
2018-05-27T10:19:16.428Z,29.28
2018-05-27T10:20:16.460Z,29.27
2018-05-27T10:21:16.428Z,29.28
2018-05-27T10:22:16.469Z,29.34
2018-05-27T10:23:16.460Z,29.45
2018-05-27T10:24:16.477Z,29.43
2018-05-27T10:25:16.464Z,29.45
2018-05-27T10:26:16.489Z,29.48
2018-05-27T10:27:16.474Z,29.53
2018-05-27T10:28:16.504Z,29.55
2018-05-27T10:29:16.468Z,29.52
2018-05-27T10:30:16.484Z,29.6
2018-05-27T10:31:16.514Z,29.53
2018-05-27T10:32:16.513Z,29.55
2018-05-27T10:33:16.518Z,29.43
2018-05-27T10:34:16.508Z,29.42
2018-05-27T10:35:16.513Z,29.45
2018-05-27T10:36:16.257Z,29.53
2018-05-27T10:37:16.791Z,29.46
2018-05-27T10:38:16.539Z,29.58
2018-05-27T10:39:16.612Z,29.6
2018-05-27T10:40:16.274Z,29.61
2018-05-27T10:41:16.565Z,29.57
2018-05-27T10:42:16.537Z,29.53
2018-05-27T10:43:16.575Z,29.63
2018-05-27T10:44:16.303Z,29.55
2018-05-27T10:45:16.583Z,29.43
2018-05-27T10:46:16.559Z,29.58
2018-05-27T10:47:16.101Z,29.61
2018-05-27T10:48:16.615Z,29.6
2018-05-27T10:49:16.376Z,29.71
2018-05-27T10:50:16.581Z,29.71
2018-05-27T10:51:16.597Z,29.65
2018-05-27T10:52:16.608Z,29.8
2018-05-27T10:53:16.677Z,29.83
2018-05-27T10:54:16.606Z,29.9
2018-05-27T10:55:16.645Z,29.95
2018-05-27T10:56:16.359Z,30.13
2018-05-27T10:57:16.663Z,30.08
2018-05-27T10:58:16.365Z,30.19
2018-05-27T10:59:16.652Z,30.23
2018-05-27T11:00:16.637Z,30.34
2018-05-27T11:01:16.411Z,30.31
2018-05-27T11:02:16.889Z,30.53
2018-05-27T11:03:16.918Z,30.51
2018-05-27T11:04:16.650Z,30.54
2018-05-27T11:05:16.665Z,30.75
2018-05-27T11:06:16.432Z,30.76
2018-05-27T11:07:16.695Z,30.76
2018-05-27T11:08:16.714Z,30.89
2018-05-27T11:09:16.678Z,30.92
2018-05-27T11:10:16.720Z,30.92
2018-05-27T11:11:16.711Z,31.01
2018-05-27T11:12:16.925Z,30.98
2018-05-27T11:13:16.479Z,30.99
2018-05-27T11:14:16.469Z,30.99
2018-05-27T11:15:16.235Z,31.14
2018-05-27T11:16:16.739Z,31.12
2018-05-27T11:17:16.508Z,31.17
2018-05-27T11:18:16.520Z,31.21
2018-05-27T11:19:16.768Z,31.28
2018-05-27T11:20:16.503Z,31.28
2018-05-27T11:21:16.500Z,31.32
2018-05-27T11:22:16.541Z,31.26
2018-05-27T11:23:16.784Z,31.21
2018-05-27T11:24:16.804Z,31.34
2018-05-27T11:25:16.788Z,31.46
2018-05-27T11:26:16.816Z,31.38
2018-05-27T11:27:16.808Z,31.51
2018-05-27T11:28:16.836Z,31.5
2018-05-27T11:29:16.551Z,31.65
2018-05-27T11:30:16.848Z,31.7
2018-05-27T11:31:16.580Z,31.8
2018-05-27T11:32:16.867Z,31.86
2018-05-27T11:33:16.847Z,32.04
2018-05-27T11:34:16.851Z,32.04
2018-05-27T11:35:16.859Z,32.18
2018-05-27T11:36:16.885Z,32.18
2018-05-27T11:37:16.861Z,32.15
2018-05-27T11:38:16.922Z,32.14
2018-05-27T11:39:16.638Z,32.01
2018-05-27T11:40:16.673Z,32.14
2018-05-27T11:41:16.380Z,32.07
2018-05-27T11:42:16.666Z,32.01
2018-05-27T11:43:16.899Z,31.95
2018-05-27T11:44:16.947Z,31.99
2018-05-27T11:45:16.921Z,31.85
2018-05-27T11:46:16.981Z,31.75
2018-05-27T11:47:16.964Z,31.7
2018-05-27T11:48:16.714Z,31.66
2018-05-27T11:49:16.940Z,31.62
2018-05-27T11:50:16.982Z,31.58
2018-05-27T11:51:16.974Z,31.5
2018-05-27T11:52:16.969Z,31.44
2018-05-27T11:53:16.980Z,31.35
2018-05-27T11:54:17.130Z,31.32
2018-05-27T11:55:16.767Z,31.2
2018-05-27T11:56:17.037Z,31.2
2018-05-27T11:57:16.995Z,31.14
2018-05-27T11:58:17.042Z,31.12
2018-05-27T11:59:17.022Z,31.01
2018-05-27T12:00:17.051Z,30.98
2018-05-27T12:01:16.767Z,31.02
2018-05-27T12:02:17.061Z,30.98
2018-05-27T12:03:16.798Z,30.95
2018-05-27T12:04:16.810Z,30.97
2018-05-27T12:05:17.086Z,31.04
2018-05-27T12:06:17.094Z,30.97
2018-05-27T12:07:17.091Z,31.06
2018-05-27T12:08:17.064Z,31.1
2018-05-27T12:09:17.691Z,31.17
2018-05-27T12:10:17.118Z,31.25
2018-05-27T12:11:16.851Z,31.31
2018-05-27T12:12:17.127Z,31.46
2018-05-27T12:13:17.106Z,31.56
2018-05-27T12:14:17.133Z,31.72
2018-05-27T12:15:17.104Z,31.84
2018-05-27T12:16:17.158Z,32
2018-05-27T12:17:17.123Z,32.22
2018-05-27T12:18:17.168Z,32.37
2018-05-27T12:19:17.144Z,32.52
2018-05-27T12:20:17.173Z,32.52
2018-05-27T12:21:16.913Z,32.63
2018-05-27T12:22:17.162Z,32.77
2018-05-27T12:23:16.922Z,32.56
2018-05-27T12:24:17.226Z,32.55
2018-05-27T12:25:17.208Z,32.3
2018-05-27T12:26:16.933Z,32.21
2018-05-27T12:27:17.213Z,32
2018-05-27T12:28:16.973Z,31.89
2018-05-27T12:29:17.211Z,31.73
2018-05-27T12:30:17.246Z,31.66
2018-05-27T12:31:17.224Z,31.63
2018-05-27T12:32:17.261Z,31.7
2018-05-27T12:33:17.241Z,31.75
2018-05-27T12:34:17.016Z,31.8
2018-05-27T12:35:17.263Z,31.95
2018-05-27T12:36:17.300Z,31.95
2018-05-27T12:37:17.262Z,32.01
2018-05-27T12:38:17.276Z,32.08
2018-05-27T12:39:17.310Z,32.07
2018-05-27T12:40:17.315Z,32.08
2018-05-27T12:41:17.324Z,31.99
2018-05-27T12:42:17.365Z,32.06
2018-05-27T12:43:17.321Z,32.19
2018-05-27T12:44:17.334Z,32.19
2018-05-27T12:45:17.095Z,32.22
2018-05-27T12:46:17.358Z,32.32
2018-05-27T12:47:17.367Z,32.26
2018-05-27T12:48:17.350Z,32.19
2018-05-27T12:49:17.401Z,32.03
2018-05-27T12:50:17.118Z,31.73
2018-05-27T12:51:17.396Z,31.31
2018-05-27T12:52:17.371Z,30.73
2018-05-27T12:53:17.154Z,30.34
2018-05-27T12:54:17.133Z,29.74
2018-05-27T12:55:17.148Z,29.24